createdAt,value
2022-09-12T00:15:37.700Z,13
2022-09-12T00:35:37.708Z,12.81
2022-09-12T00:55:37.730Z,12.6
2022-09-12T01:15:37.682Z,12.45
2022-09-12T01:35:37.682Z,12.37
2022-09-12T01:55:37.674Z,12.39
2022-09-12T02:15:37.710Z,12.43
2022-09-12T02:35:37.672Z,12.44
2022-09-12T02:55:37.730Z,12.4
2022-09-12T03:15:38.961Z,12.73
2022-09-12T03:40:38.530Z,12.74
2022-09-12T04:25:41.842Z,12.59
2022-09-12T06:45:41.605Z,14.83
2022-09-12T07:05:40.366Z,15.41
2022-09-12T07:25:41.820Z,15.77
2022-09-12T08:16:30.361Z,17.47
2022-09-12T08:35:37.556Z,18.02
2022-09-12T08:55:37.545Z,18.75
2022-09-12T09:15:37.613Z,19.74
2022-09-12T09:35:37.518Z,20.22
2022-09-12T09:55:37.514Z,20.83
2022-09-12T10:15:37.600Z,21.08
2022-09-12T11:15:37.540Z,22.04
2022-09-12T11:35:37.464Z,22.36
2022-09-12T11:55:37.455Z,22.59
2022-09-12T12:15:37.503Z,22.71
2022-09-12T12:35:37.439Z,22.93
2022-09-12T13:55:37.402Z,23.65
2022-09-12T14:15:37.422Z,23.92
2022-09-12T14:55:37.377Z,24.07
2022-09-12T15:15:37.390Z,23.94
2022-09-12T15:35:37.419Z,23.9
2022-09-12T15:55:37.326Z,23.76
2022-09-12T16:15:37.379Z,23.63
2022-09-12T16:35:37.318Z,23.43
2022-09-12T16:55:37.309Z,23.24
2022-09-12T17:15:37.303Z,22.94
2022-09-12T17:35:37.290Z,22.33
2022-09-12T17:55:37.272Z,21.36
2022-09-12T18:15:37.319Z,20.27
2022-09-12T18:55:37.277Z,18.75
2022-09-12T19:15:37.278Z,18.21
2022-09-12T19:35:37.241Z,18
2022-09-12T19:55:37.250Z,18.13
2022-09-12T20:15:37.269Z,18.11
2022-09-12T20:35:37.209Z,18.93
2022-09-12T20:55:37.195Z,19.64
2022-09-12T21:15:37.321Z,19.86
2022-09-12T21:35:37.177Z,19.72
2022-09-12T21:55:37.166Z,19.37
2022-09-12T22:15:40.352Z,19.28
2022-09-12T22:55:37.148Z,19.32
2022-09-12T23:15:37.126Z,19.15
2022-09-12T23:35:37.126Z,18.95
2022-09-12T23:55:37.108Z,18.86
